• Join FlightAware (Why Join?)
  • Login
  • US Flag 
02:32AM EDT


 

Airport Tracker/Info


-or-


 

Live Flight TrackerFlight Track Log ✈ FIN666 ✈ 09-Jan-2014 ✈ EKCH / CPH - EFHK / HEL

Flight Track Log - Related Links

Times and Time Zones

All times are in EST time to prevent confusion due to time zone crossing. See the FIN666 flight status page for this flight to view local times or setup timezone preferences in your user account.

Time Position Orientation Groundspeed Altitude Reporting Facility
EST Latitude Longitude Course Direction KTS MPH feet Rate Location/Type
07:28AM 55.8389 13.1126 49° Northeast  Level Estimated
07:29AM 55.9122 13.2660 50° Northeast  Level Estimated
07:30AM 55.9853 13.4199 50° Northeast  Level Estimated
07:31AM 56.0582 13.5744 50° Northeast  Level Estimated
07:32AM 56.1341 13.7364 50° Northeast  Level Estimated
07:33AM 56.2098 13.8990 50° Northeast  Level Estimated
07:34AM 56.2853 14.0623 50° Northeast  Level Estimated
07:35AM 56.3605 14.2261 50° Northeast  Level Estimated
07:36AM 56.4356 14.3907 50° Northeast  Level Estimated
07:37AM 56.5104 14.5559 51° Northeast  Level Estimated
07:38AM 56.5850 14.7217 51° Northeast  Level Estimated
07:39AM 56.6594 14.8882 51° Northeast  Level Estimated
07:40AM 56.7336 15.0554 51° Northeast  Level Estimated
07:41AM 56.8075 15.2232 51° Northeast  Level Estimated
07:42AM 56.8812 15.3917 51° Northeast  Level Estimated
07:43AM 56.9547 15.5608 51° Northeast  Level Estimated
07:44AM 57.0280 15.7306 52° Northeast  Level Estimated
07:45AM 57.1010 15.9011 52° Northeast  Level Estimated
07:46AM 57.1738 16.0722 52° Northeast  Level Estimated
07:47AM 57.2463 16.2441 52° Northeast  Level Estimated
07:48AM 57.3187 16.4166 52° Northeast  Level Estimated
07:49AM 57.3908 16.5897 52° Northeast  Level Estimated
07:50AM 57.4626 16.7636 52° Northeast  Level Estimated
07:51AM 57.5342 16.9382 53° Northeast  Level Estimated
07:52AM 57.6056 17.1134 53° Northeast  Level Estimated
07:53AM 57.6767 17.2893 53° Northeast  Level Estimated
07:54AM 57.7476 17.4659 53° Northeast  Level Estimated
07:55AM 57.8182 17.6432 53° Northeast  Level Estimated
07:56AM 57.8886 17.8212 53° Northeast  Level Estimated
07:57AM 57.9587 17.9999 53° Northeast  Level Estimated
07:58AM 58.0286 18.1793 54° Northeast  Level Estimated
07:59AM 58.0982 18.3594 54° Northeast  Level Estimated
08:00AM 58.1676 18.5402 54° Northeast  Level Estimated
08:01AM 58.2367 18.7217 54° Northeast  Level Estimated
08:02AM 58.3056 18.9039 54° Northeast  Level Estimated
08:03AM 58.3742 19.0868 54° Northeast  Level Estimated
08:04AM 58.4425 19.2705 55° Northeast  Level Estimated
08:05AM 58.5106 19.4548 55° Northeast  Level Estimated
08:06AM 58.5784 19.6399 55° Northeast  Level Estimated
08:07AM 58.6460 19.8256 55° Northeast  Level Estimated
08:08AM 58.7132 20.0121 55° Northeast  Level Estimated
08:09AM 58.7802 20.1994 55° Northeast  Level Estimated
08:10AM 58.8470 20.3873 55° Northeast  Level Estimated
08:11AM 58.9134 20.5760 56° Northeast  Level Estimated
08:12AM 58.9796 20.7653 56° Northeast  Level Estimated
08:13AM 59.0455 20.9555 56° Northeast  Level Estimated
08:14AM 59.1111 21.1463 56° Northeast  Level Estimated
08:15AM 59.1765 21.3379 56° Northeast  Level Estimated
08:16AM 59.2415 21.5302 56° Northeast  Level Estimated
08:17AM 59.3063 21.7232 57° Northeast  Level Estimated
08:18AM 59.3708 21.9170 57° Northeast  Level Estimated
08:19AM 59.4350 22.1115 57° Northeast  Level Estimated
08:20AM 59.4989 22.3068 57° Northeast  Level Estimated
08:21AM 59.5625 22.5028 57° Northeast  Level Estimated
08:22AM 59.6259 22.6995 57° Northeast  Level Estimated
08:23AM 59.6889 22.8970 58° Northeast  Level Estimated
08:24AM 59.7516 23.0952 58° Northeast  Level Estimated
08:25AM 59.8140 23.2941 58° Northeast  Level Estimated
08:26AM 59.8762 23.4938 58° Northeast  Level Estimated
08:27AM 59.9380 23.6943 58° Northeast  Level Estimated
08:28AM 59.9995 23.8955 58° Northeast  Level Estimated
08:29AM 60.0607 24.0974 59° Northeast  Level Estimated
08:30AM 60.1217 24.3001 59° Northeast  Level Estimated
08:31AM 60.1822 24.5035 59° Northeast  Level Estimated
08:32AM 60.2425 24.7077 59° Northeast  Level Estimated
08:33AM 60.3025 24.9127 59° Northeast  Level Estimated
08:34AM 60.3172 24.9633 60° Northeast  Level Estimated
08:35AM 60.3172 24.9633 37° Northeast  Level Estimated
08:36AM 60.3172 24.9633 37° Northeast  Level Estimated
08:37AM 60.3172 24.9633 37° Northeast  Level Estimated
08:38AM 60.3172 24.9633 37° Northeast  Level Estimated
08:39AM 60.3172 24.9633 37° Northeast  Level Estimated
08:40AM 60.3172 24.9633 37° Northeast  Level Estimated
08:41AM 60.3172 24.9633 37° Northeast  Level Estimated
08:42AM 60.3172 24.9633 37° Northeast  Level Estimated
08:43AM 60.3172 24.9633 37° Northeast  Level Estimated